createdAt,value
2019-01-27T00:00:05.794Z,1008.79
2019-01-27T00:00:46.414Z,1008.75
2019-01-27T00:01:27.037Z,1008.75
2019-01-27T00:02:07.706Z,1008.76
2019-01-27T00:02:48.352Z,1008.76
2019-01-27T00:03:29.028Z,1008.76
2019-01-27T00:04:09.656Z,1008.73
2019-01-27T00:04:50.269Z,1008.73
2019-01-27T00:05:30.896Z,1008.73
2019-01-27T00:06:11.526Z,1008.72
2019-01-27T00:06:52.290Z,1008.75
2019-01-27T00:07:32.963Z,1008.74
2019-01-27T00:08:13.870Z,1008.74
2019-01-27T00:08:54.221Z,1008.71
2019-01-27T00:09:34.854Z,1008.7
2019-01-27T00:10:15.478Z,1008.7
2019-01-27T00:10:56.144Z,1008.67
2019-01-27T00:11:36.744Z,1008.71
2019-01-27T00:12:17.352Z,1008.67
2019-01-27T00:12:57.958Z,1008.65
2019-01-27T00:13:38.590Z,1008.61
2019-01-27T00:14:19.221Z,1008.61
2019-01-27T00:14:59.834Z,1008.6
2019-01-27T00:15:40.448Z,1008.55
2019-01-27T00:16:21.090Z,1008.53
2019-01-27T00:17:01.699Z,1008.51
2019-01-27T00:17:42.385Z,1008.51
2019-01-27T00:18:23.033Z,1008.5
2019-01-27T00:19:03.679Z,1008.48
2019-01-27T00:19:44.335Z,1008.48
2019-01-27T00:20:24.952Z,1008.44
2019-01-27T00:21:05.590Z,1008.44
2019-01-27T00:21:46.216Z,1008.45
2019-01-27T00:22:26.852Z,1008.41
2019-01-27T00:23:07.492Z,1008.4
2019-01-27T00:23:48.112Z,1008.43
2019-01-27T00:24:28.750Z,1008.4
2019-01-27T00:25:09.387Z,1008.4
2019-01-27T00:25:50.032Z,1008.39
2019-01-27T00:26:30.654Z,1008.37
2019-01-27T00:27:11.271Z,1008.38
2019-01-27T00:27:51.900Z,1008.36
2019-01-27T00:28:32.628Z,1008.33
2019-01-27T00:29:13.240Z,1008.36
2019-01-27T00:29:53.916Z,1008.33
2019-01-27T00:30:34.536Z,1008.29
2019-01-27T00:31:15.156Z,1008.3
2019-01-27T00:31:55.768Z,1008.3
2019-01-27T00:32:36.376Z,1008.28
2019-01-27T00:33:16.990Z,1008.29
2019-01-27T00:33:57.600Z,1008.31
2019-01-27T00:34:38.269Z,1008.34
2019-01-27T00:35:20.590Z,1008.32
2019-01-27T00:36:01.207Z,1008.28
2019-01-27T00:36:41.906Z,1008.3
2019-01-27T00:37:22.500Z,1008.31
2019-01-27T00:38:03.154Z,1008.31
2019-01-27T00:38:43.792Z,1008.3
2019-01-27T00:39:24.470Z,1008.26
2019-01-27T00:40:05.062Z,1008.28
2019-01-27T00:40:45.680Z,1008.29
2019-01-27T00:41:26.286Z,1008.3
2019-01-27T00:42:06.894Z,1008.3
2019-01-27T00:42:47.509Z,1008.31
2019-01-27T00:43:28.276Z,1008.29
2019-01-27T00:44:08.886Z,1008.27
2019-01-27T00:44:49.556Z,1008.27
2019-01-27T00:45:30.240Z,1008.29
2019-01-27T00:46:10.830Z,1008.28
2019-01-27T00:46:51.442Z,1008.24
2019-01-27T00:47:32.033Z,1008.23
2019-01-27T00:48:12.649Z,1008.23
2019-01-27T00:48:53.327Z,1008.24
2019-01-27T00:49:33.958Z,1008.23
2019-01-27T00:50:14.590Z,1008.21
2019-01-27T00:50:55.216Z,1008.16
2019-01-27T00:51:35.832Z,1008.17
2019-01-27T00:52:16.434Z,1008.15
2019-01-27T00:52:57.067Z,1008.17
2019-01-27T00:53:37.704Z,1008.14
2019-01-27T00:54:18.340Z,1008.13
2019-01-27T00:54:58.955Z,1008.14
2019-01-27T00:55:39.570Z,1008.13
2019-01-27T00:56:20.166Z,1008.13
2019-01-27T00:57:00.764Z,1008.13
2019-01-27T00:57:41.366Z,1008.1
2019-01-27T00:58:21.967Z,1008.07
2019-01-27T00:59:02.577Z,1008.05
2019-01-27T00:59:43.198Z,1008.01
2019-01-27T01:00:23.825Z,1008
2019-01-27T01:01:04.422Z,1007.94
2019-01-27T01:01:45.040Z,1007.96
2019-01-27T01:02:25.661Z,1007.91
2019-01-27T01:03:06.277Z,1007.91
2019-01-27T01:03:46.904Z,1007.88
2019-01-27T01:04:27.500Z,1007.89
2019-01-27T01:05:08.115Z,1007.85
2019-01-27T01:05:48.752Z,1007.82
2019-01-27T01:06:29.358Z,1007.82
2019-01-27T01:07:09.958Z,1007.81
2019-01-27T01:07:50.562Z,1007.79
2019-01-27T01:08:31.154Z,1007.77
2019-01-27T01:09:11.748Z,1007.76
2019-01-27T01:09:52.352Z,1007.75
2019-01-27T01:10:32.954Z,1007.73
2019-01-27T01:11:13.564Z,1007.73
2019-01-27T01:11:54.162Z,1007.75
2019-01-27T01:12:34.768Z,1007.75
2019-01-27T01:13:15.386Z,1007.8
2019-01-27T01:13:56.030Z,1007.75
2019-01-27T01:14:36.663Z,1007.76
2019-01-27T01:15:17.290Z,1007.75
2019-01-27T01:15:57.886Z,1007.69
2019-01-27T01:16:38.494Z,1007.7
2019-01-27T01:17:19.102Z,1007.66
2019-01-27T01:17:59.710Z,1007.63
2019-01-27T01:18:40.338Z,1007.61
2019-01-27T01:19:20.935Z,1007.63
2019-01-27T01:21:51.518Z,1007.58
2019-01-27T01:22:32.128Z,1007.53
2019-01-27T01:23:12.718Z,1007.55
2019-01-27T01:23:53.332Z,1007.52
2019-01-27T01:24:33.942Z,1007.5
2019-01-27T01:25:14.562Z,1007.51
2019-01-27T01:25:55.140Z,1007.46
2019-01-27T01:26:35.744Z,1007.48
2019-01-27T01:27:16.344Z,1007.43
2019-01-27T01:27:56.949Z,1007.41
2019-01-27T01:28:37.580Z,1007.44
2019-01-27T01:29:18.185Z,1007.41
2019-01-27T01:29:58.790Z,1007.4
2019-01-27T01:30:39.402Z,1007.37
2019-01-27T01:31:19.986Z,1007.36
2019-01-27T01:32:00.594Z,1007.38
2019-01-27T01:32:41.218Z,1007.37
2019-01-27T01:33:21.822Z,1007.31
2019-01-27T01:34:02.463Z,1007.26
2019-01-27T01:34:43.056Z,1007.26
2019-01-27T01:35:23.671Z,1007.21
2019-01-27T01:36:04.272Z,1007.24
2019-01-27T01:36:44.871Z,1007.23
2019-01-27T01:37:25.466Z,1007.19
2019-01-27T01:38:06.056Z,1007.21
2019-01-27T01:38:46.664Z,1007.16
2019-01-27T01:39:27.264Z,1007.16
2019-01-27T01:40:07.878Z,1007.16
2019-01-27T01:40:48.523Z,1007.16
2019-01-27T01:41:29.136Z,1007.17
2019-01-27T01:42:09.736Z,1007.12
2019-01-27T01:42:50.350Z,1007.14
2019-01-27T01:43:30.978Z,1007.15
2019-01-27T01:44:11.590Z,1007.15
2019-01-27T01:44:52.192Z,1007.11
2019-01-27T01:45:32.796Z,1007.1
2019-01-27T01:46:13.390Z,1007.11
2019-01-27T01:46:53.990Z,1007.08
2019-01-27T01:47:34.594Z,1007.08
2019-01-27T01:48:15.206Z,1007.07
2019-01-27T01:48:55.813Z,1007.08
2019-01-27T01:49:36.409Z,1007.1
2019-01-27T01:50:17.022Z,1007.08
2019-01-27T01:50:57.633Z,1007.07
2019-01-27T01:51:38.245Z,1007.11
2019-01-27T01:52:18.868Z,1007.12
2019-01-27T01:52:59.504Z,1007.12
2019-01-27T01:53:40.096Z,1007.12
2019-01-27T01:54:20.726Z,1007.11
2019-01-27T01:55:01.339Z,1007.1
2019-01-27T01:55:41.932Z,1007.06
2019-01-27T01:56:22.570Z,1007.09
2019-01-27T01:57:03.176Z,1007.06
2019-01-27T01:57:43.804Z,1007.04
2019-01-27T01:58:24.450Z,1007.05
2019-01-27T01:59:05.074Z,1007.03
2019-01-27T01:59:45.690Z,1007.01
2019-01-27T02:00:26.286Z,1007.04
2019-01-27T02:01:06.890Z,1007.03
2019-01-27T02:01:47.490Z,1007.03
2019-01-27T02:02:28.083Z,1007.01
2019-01-27T02:03:08.695Z,1007
2019-01-27T02:03:49.298Z,1007.01
2019-01-27T02:04:29.892Z,1007.03
2019-01-27T02:05:10.504Z,1007.04
2019-01-27T02:05:51.122Z,1007.01
2019-01-27T02:06:31.730Z,1007.05
2019-01-27T02:07:12.336Z,1007.1
2019-01-27T02:07:52.958Z,1007.07
2019-01-27T02:08:33.570Z,1007.05
2019-01-27T02:09:14.186Z,1007.02
2019-01-27T02:09:54.833Z,1007
2019-01-27T02:10:35.429Z,1007.01
2019-01-27T02:11:16.056Z,1007
2019-01-27T02:11:56.673Z,1006.99
2019-01-27T02:12:37.300Z,1007
2019-01-27T02:13:17.932Z,1007.04
2019-01-27T02:13:58.530Z,1007.04
2019-01-27T02:14:39.134Z,1007.01
2019-01-27T02:15:19.843Z,1007.01
2019-01-27T02:16:00.450Z,1006.97
2019-01-27T02:16:41.064Z,1007.02
2019-01-27T02:17:21.653Z,1007.02
2019-01-27T02:18:02.264Z,1007.03
2019-01-27T02:18:42.866Z,1006.96
2019-01-27T02:19:23.510Z,1006.98
2019-01-27T02:20:04.124Z,1006.95
2019-01-27T02:20:44.776Z,1006.91
2019-01-27T02:21:25.390Z,1006.95
2019-01-27T02:22:06.012Z,1006.93
2019-01-27T02:22:46.632Z,1006.95
2019-01-27T02:23:27.245Z,1006.95
2019-01-27T02:24:07.854Z,1006.96
2019-01-27T02:24:48.466Z,1006.96
2019-01-27T02:25:29.078Z,1006.95
2019-01-27T02:26:09.709Z,1006.91
2019-01-27T02:26:50.312Z,1006.88
2019-01-27T02:27:30.920Z,1006.91
2019-01-27T02:28:11.566Z,1006.86
2019-01-27T02:28:52.174Z,1006.84
2019-01-27T02:29:32.768Z,1006.8
2019-01-27T02:30:13.380Z,1006.81
2019-01-27T02:30:53.990Z,1006.8
2019-01-27T02:31:34.580Z,1006.8
2019-01-27T02:32:15.222Z,1006.75
2019-01-27T02:32:55.848Z,1006.77
2019-01-27T02:33:36.470Z,1006.79
2019-01-27T02:34:17.097Z,1006.76
2019-01-27T02:34:57.730Z,1006.69
2019-01-27T02:35:38.346Z,1006.71
2019-01-27T02:36:19.005Z,1006.68
2019-01-27T02:36:59.608Z,1006.71
2019-01-27T02:37:40.218Z,1006.69
2019-01-27T02:38:20.839Z,1006.71
2019-01-27T02:39:01.464Z,1006.72
2019-01-27T02:39:42.073Z,1006.69
2019-01-27T02:40:22.692Z,1006.68
2019-01-27T02:41:03.319Z,1006.67
2019-01-27T02:41:43.965Z,1006.69
2019-01-27T02:42:24.582Z,1006.71
2019-01-27T02:43:05.194Z,1006.71
2019-01-27T02:43:45.798Z,1006.68
2019-01-27T02:44:26.414Z,1006.71
2019-01-27T02:45:07.039Z,1006.68
2019-01-27T02:45:47.638Z,1006.66
2019-01-27T02:46:28.238Z,1006.65
2019-01-27T02:47:08.845Z,1006.68
2019-01-27T02:47:49.469Z,1006.63
2019-01-27T02:48:30.096Z,1006.64
2019-01-27T02:49:10.696Z,1006.66
2019-01-27T02:49:51.300Z,1006.62
2019-01-27T02:50:31.911Z,1006.62
2019-01-27T02:51:12.538Z,1006.62
2019-01-27T02:51:53.168Z,1006.62
2019-01-27T02:52:33.762Z,1006.59
2019-01-27T02:53:14.362Z,1006.63
2019-01-27T02:53:54.969Z,1006.55
2019-01-27T02:54:35.599Z,1006.54
2019-01-27T02:55:16.213Z,1006.55
2019-01-27T02:55:56.838Z,1006.51
2019-01-27T02:56:37.473Z,1006.5
2019-01-27T02:57:18.075Z,1006.5
2019-01-27T02:57:58.686Z,1006.49
2019-01-27T02:58:39.320Z,1006.49
2019-01-27T02:59:19.960Z,1006.48
2019-01-27T03:00:00.581Z,1006.46
2019-01-27T03:00:41.189Z,1006.47
2019-01-27T03:01:21.847Z,1006.47
2019-01-27T03:02:02.444Z,1006.48
2019-01-27T03:02:43.100Z,1006.5
2019-01-27T03:03:23.708Z,1006.46
2019-01-27T03:04:04.367Z,1006.52
2019-01-27T03:04:45.123Z,1006.49
2019-01-27T03:05:25.730Z,1006.45
2019-01-27T03:06:06.366Z,1006.49
2019-01-27T03:06:47.039Z,1006.48
2019-01-27T03:07:27.688Z,1006.49
2019-01-27T03:08:08.343Z,1006.5
2019-01-27T03:08:49.009Z,1006.43
2019-01-27T03:09:29.640Z,1006.42
2019-01-27T03:10:10.310Z,1006.41
2019-01-27T03:10:50.962Z,1006.38
2019-01-27T03:11:31.585Z,1006.37
2019-01-27T03:12:12.205Z,1006.4
2019-01-27T03:12:52.797Z,1006.35
2019-01-27T03:13:33.390Z,1006.42
2019-01-27T03:14:13.992Z,1006.37
2019-01-27T03:14:54.622Z,1006.38
2019-01-27T03:15:35.260Z,1006.36
2019-01-27T03:16:15.888Z,1006.3
2019-01-27T03:16:56.480Z,1006.31
2019-01-27T03:17:37.073Z,1006.3
2019-01-27T03:18:17.687Z,1006.29
2019-01-27T03:18:58.321Z,1006.28
2019-01-27T03:19:39.001Z,1006.26
2019-01-27T03:20:19.668Z,1006.25
2019-01-27T03:21:00.267Z,1006.26
2019-01-27T03:21:40.873Z,1006.24
2019-01-27T03:22:21.522Z,1006.28
2019-01-27T03:23:02.128Z,1006.23
2019-01-27T03:23:42.763Z,1006.25
2019-01-27T03:24:23.378Z,1006.26
2019-01-27T03:25:04.002Z,1006.23
2019-01-27T03:25:44.656Z,1006.25
2019-01-27T03:26:25.286Z,1006.25
2019-01-27T03:27:05.895Z,1006.26
2019-01-27T03:27:46.531Z,1006.2
2019-01-27T03:28:27.135Z,1006.22
2019-01-27T03:29:07.768Z,1006.19
2019-01-27T03:29:48.386Z,1006.19
2019-01-27T03:30:29.009Z,1006.22
2019-01-27T03:31:09.625Z,1006.24
2019-01-27T03:31:50.351Z,1006.25
2019-01-27T03:32:30.885Z,1006.21
2019-01-27T03:33:11.455Z,1006.2
2019-01-27T03:33:52.186Z,1006.19
2019-01-27T03:34:32.834Z,1006.14
2019-01-27T03:35:13.445Z,1006.13
2019-01-27T03:35:54.063Z,1006.09
2019-01-27T03:36:34.708Z,1006.1
2019-01-27T03:37:15.320Z,1006.11
2019-01-27T03:37:55.936Z,1006.08
2019-01-27T03:38:36.549Z,1006.1
2019-01-27T03:39:17.178Z,1006.11
2019-01-27T03:39:57.763Z,1006.1
2019-01-27T03:40:38.360Z,1006.13
2019-01-27T03:41:18.970Z,1006.15
2019-01-27T03:41:59.624Z,1006.1
2019-01-27T03:42:40.230Z,1006.07
2019-01-27T03:43:20.879Z,1006.05
2019-01-27T03:44:01.512Z,1006.02
2019-01-27T03:44:42.135Z,1006.02
2019-01-27T03:45:22.768Z,1006.01
2019-01-27T03:46:03.359Z,1006
2019-01-27T03:46:43.969Z,1005.97
2019-01-27T03:47:24.608Z,1005.96
2019-01-27T03:48:05.215Z,1005.93
2019-01-27T03:48:45.816Z,1005.91
2019-01-27T03:49:26.425Z,1005.9
2019-01-27T03:50:07.073Z,1005.85
2019-01-27T03:50:47.679Z,1005.84
2019-01-27T03:51:28.296Z,1005.85
2019-01-27T03:52:08.910Z,1005.85
2019-01-27T03:52:49.549Z,1005.87
2019-01-27T03:53:30.160Z,1005.88
2019-01-27T03:54:10.847Z,1005.89
2019-01-27T03:54:51.463Z,1005.92
2019-01-27T03:55:32.102Z,1005.9
2019-01-27T03:56:12.705Z,1005.83
2019-01-27T03:56:53.346Z,1005.78
2019-01-27T03:57:33.992Z,1005.76
2019-01-27T03:58:14.604Z,1005.74
2019-01-27T03:58:55.231Z,1005.71
2019-01-27T03:59:35.841Z,1005.73
2019-01-27T04:00:16.437Z,1005.72
2019-01-27T04:00:57.070Z,1005.75
2019-01-27T04:01:37.681Z,1005.77
2019-01-27T04:02:18.327Z,1005.79
2019-01-27T04:02:58.916Z,1005.73
2019-01-27T04:03:39.526Z,1005.72
2019-01-27T04:04:20.131Z,1005.71
2019-01-27T04:05:00.739Z,1005.7
2019-01-27T04:05:41.352Z,1005.66
2019-01-27T04:06:21.981Z,1005.65
2019-01-27T04:07:02.595Z,1005.63
2019-01-27T04:07:43.203Z,1005.64
2019-01-27T04:08:23.813Z,1005.7
2019-01-27T04:09:04.454Z,1005.69
2019-01-27T04:09:45.064Z,1005.69
2019-01-27T04:10:25.733Z,1005.72
2019-01-27T04:11:06.337Z,1005.7
2019-01-27T04:11:46.943Z,1005.76
2019-01-27T04:12:27.579Z,1005.74
2019-01-27T04:13:08.212Z,1005.74
2019-01-27T04:13:48.827Z,1005.69
2019-01-27T04:14:29.448Z,1005.68
2019-01-27T04:15:10.098Z,1005.68
2019-01-27T04:15:50.715Z,1005.62
2019-01-27T04:16:31.313Z,1005.65
2019-01-27T04:17:11.905Z,1005.63
2019-01-27T04:17:52.515Z,1005.67
2019-01-27T04:18:33.159Z,1005.64
2019-01-27T04:19:13.752Z,1005.65
2019-01-27T04:19:54.371Z,1005.67
2019-01-27T04:20:35.007Z,1005.61
2019-01-27T04:21:15.621Z,1005.59
2019-01-27T04:21:56.231Z,1005.48
2019-01-27T04:22:36.840Z,1005.48
2019-01-27T04:23:17.432Z,1005.43
2019-01-27T04:23:58.042Z,1005.41
2019-01-27T04:24:38.647Z,1005.43
2019-01-27T04:25:19.262Z,1005.45
2019-01-27T04:25:59.891Z,1005.53
2019-01-27T04:26:40.525Z,1005.55
2019-01-27T04:27:21.123Z,1005.64
2019-01-27T04:28:01.743Z,1005.68
2019-01-27T04:28:42.357Z,1005.66
2019-01-27T04:29:22.971Z,1005.69
2019-01-27T04:30:03.603Z,1005.62
2019-01-27T04:30:44.212Z,1005.57
2019-01-27T04:31:24.833Z,1005.57
2019-01-27T04:32:05.435Z,1005.55
2019-01-27T04:32:46.051Z,1005.59
2019-01-27T04:33:26.665Z,1005.71
2019-01-27T04:34:07.286Z,1005.79
2019-01-27T04:34:47.896Z,1005.79
2019-01-27T04:35:28.503Z,1005.76
2019-01-27T04:36:09.111Z,1005.75
2019-01-27T04:36:49.717Z,1005.69
2019-01-27T04:37:30.359Z,1005.56
2019-01-27T04:38:10.973Z,1005.46
2019-01-27T04:38:51.585Z,1005.42
2019-01-27T04:39:32.257Z,1005.36
2019-01-27T04:40:12.868Z,1005.36
2019-01-27T04:40:53.471Z,1005.4
2019-01-27T04:41:34.091Z,1005.5
2019-01-27T04:42:14.708Z,1005.58
2019-01-27T04:42:55.330Z,1005.58
2019-01-27T04:43:35.949Z,1005.6
2019-01-27T04:44:16.583Z,1005.53
2019-01-27T04:44:57.180Z,1005.5
2019-01-27T04:45:37.793Z,1005.36
2019-01-27T04:46:18.390Z,1005.31
2019-01-27T04:46:59.001Z,1005.32
2019-01-27T04:47:39.604Z,1005.26
2019-01-27T04:48:20.211Z,1005.3
2019-01-27T04:49:00.811Z,1005.29
2019-01-27T04:49:41.427Z,1005.32
2019-01-27T04:50:22.080Z,1005.32
2019-01-27T04:51:02.683Z,1005.3
2019-01-27T04:51:43.295Z,1005.33
2019-01-27T04:52:23.888Z,1005.29
2019-01-27T04:53:04.503Z,1005.29
2019-01-27T04:53:45.167Z,1005.25
2019-01-27T04:54:25.761Z,1005.21
2019-01-27T04:55:06.401Z,1005.23
2019-01-27T04:55:47.009Z,1005.28
2019-01-27T04:56:27.625Z,1005.32
2019-01-27T04:57:08.245Z,1005.35
2019-01-27T04:57:48.868Z,1005.4
2019-01-27T04:58:29.457Z,1005.41
2019-01-27T04:59:10.058Z,1005.5
2019-01-27T04:59:50.652Z,1005.5
2019-01-27T05:00:31.259Z,1005.51
2019-01-27T05:01:11.865Z,1005.51
2019-01-27T05:01:52.507Z,1005.48
2019-01-27T05:02:33.129Z,1005.45
2019-01-27T05:03:13.743Z,1005.46
2019-01-27T05:03:54.341Z,1005.43
2019-01-27T05:04:34.986Z,1005.46
2019-01-27T05:05:15.599Z,1005.44
2019-01-27T05:05:56.201Z,1005.47
2019-01-27T05:06:36.803Z,1005.45
2019-01-27T05:07:17.417Z,1005.49
2019-01-27T05:07:58.053Z,1005.45
2019-01-27T05:08:38.691Z,1005.46
2019-01-27T05:09:19.299Z,1005.42
2019-01-27T05:09:59.905Z,1005.44
2019-01-27T05:10:40.515Z,1005.38
2019-01-27T05:11:21.117Z,1005.36
2019-01-27T05:12:01.742Z,1005.3
2019-01-27T05:12:42.346Z,1005.29
2019-01-27T05:13:22.969Z,1005.29
2019-01-27T05:14:03.573Z,1005.27
2019-01-27T05:14:44.171Z,1005.29
2019-01-27T05:15:24.783Z,1005.31
2019-01-27T05:16:05.433Z,1005.28
2019-01-27T05:16:46.046Z,1005.3
2019-01-27T05:17:26.661Z,1005.3
2019-01-27T05:18:07.283Z,1005.3
2019-01-27T05:18:47.872Z,1005.28
2019-01-27T05:19:28.495Z,1005.27
2019-01-27T05:20:09.137Z,1005.27
2019-01-27T05:20:49.735Z,1005.24
2019-01-27T05:21:30.349Z,1005.26
2019-01-27T05:22:10.986Z,1005.24
2019-01-27T05:22:51.600Z,1005.27
2019-01-27T05:23:32.193Z,1005.23
2019-01-27T05:24:12.839Z,1005.19
2019-01-27T05:24:53.435Z,1005.16
2019-01-27T05:25:34.041Z,1005.11
2019-01-27T05:26:14.692Z,1005.04
2019-01-27T05:26:55.331Z,1005.03
2019-01-27T05:27:35.959Z,1005.03
2019-01-27T05:28:16.573Z,1005.03
2019-01-27T05:28:57.171Z,1005.07
2019-01-27T05:29:37.771Z,1005.03
2019-01-27T05:30:18.388Z,1005.02
2019-01-27T05:30:59.031Z,1005.02
2019-01-27T05:31:39.634Z,1005.02
2019-01-27T05:32:20.235Z,1005.06
2019-01-27T05:33:00.861Z,1005.01
2019-01-27T05:33:41.473Z,1005.06
2019-01-27T05:34:22.095Z,1005.03
2019-01-27T05:35:02.741Z,1005.03
2019-01-27T05:35:43.347Z,1005.03
2019-01-27T05:36:24.063Z,1004.99
2019-01-27T05:37:04.793Z,1004.99
2019-01-27T05:37:45.445Z,1004.97
2019-01-27T05:38:26.091Z,1004.99
2019-01-27T05:39:06.712Z,1004.98
2019-01-27T05:39:47.362Z,1004.97
2019-01-27T05:40:28.047Z,1004.95
2019-01-27T05:41:08.645Z,1004.99
2019-01-27T05:41:49.259Z,1005.05
2019-01-27T05:42:29.895Z,1005.07
2019-01-27T05:43:10.517Z,1005.07
2019-01-27T05:43:51.197Z,1005.13
2019-01-27T05:44:31.799Z,1005.15
2019-01-27T05:45:12.423Z,1005.18
2019-01-27T05:45:53.021Z,1005.21
2019-01-27T05:46:33.639Z,1005.2
2019-01-27T05:47:14.291Z,1005.23
2019-01-27T05:47:54.893Z,1005.19
2019-01-27T05:48:35.499Z,1005.2
2019-01-27T05:49:16.102Z,1005.15
2019-01-27T05:49:56.706Z,1005.16
2019-01-27T05:50:37.340Z,1005.13
2019-01-27T05:51:17.945Z,1005.11
2019-01-27T05:51:58.556Z,1005.12
2019-01-27T05:52:39.167Z,1005.15
2019-01-27T05:53:19.777Z,1005.14
2019-01-27T05:54:00.399Z,1005.2
2019-01-27T05:54:41.047Z,1005.19
2019-01-27T05:55:21.727Z,1005.17
2019-01-27T05:56:02.319Z,1005.22
2019-01-27T05:56:42.931Z,1005.21
2019-01-27T05:57:23.537Z,1005.2
2019-01-27T05:58:04.177Z,1005.21
2019-01-27T05:58:44.783Z,1005.18
2019-01-27T05:59:25.408Z,1005.17
2019-01-27T06:00:06.023Z,1005.15
2019-01-27T06:00:46.678Z,1005.14
2019-01-27T06:01:27.235Z,1005.17
2019-01-27T06:02:07.836Z,1005.11
2019-01-27T06:02:48.434Z,1005.13
2019-01-27T06:03:29.033Z,1005.12
2019-01-27T06:04:09.659Z,1005.09
2019-01-27T06:04:50.267Z,1005.1
2019-01-27T06:05:30.889Z,1005.05
2019-01-27T06:06:11.529Z,1005.08
2019-01-27T06:06:52.169Z,1005.04
2019-01-27T06:07:32.787Z,1005.15
2019-01-27T06:08:13.397Z,1005.14
2019-01-27T06:08:53.990Z,1005.1
2019-01-27T06:09:34.599Z,1005.08
2019-01-27T06:10:15.254Z,1005.13
2019-01-27T06:10:55.854Z,1005.09
2019-01-27T06:11:36.461Z,1005.13
2019-01-27T06:12:17.117Z,1005.07
2019-01-27T06:12:57.741Z,1005.07
2019-01-27T06:13:38.363Z,1005.11
2019-01-27T06:14:18.967Z,1005.05
2019-01-27T06:14:59.567Z,1005.02
2019-01-27T06:15:40.174Z,1005.03
2019-01-27T06:16:20.789Z,1005.08
2019-01-27T06:17:01.400Z,1005.12
2019-01-27T06:17:42.043Z,1005.15
2019-01-27T06:18:22.633Z,1005.12
2019-01-27T06:19:03.239Z,1005.2
2019-01-27T06:19:43.835Z,1005.22
2019-01-27T06:20:24.465Z,1005.28
2019-01-27T06:21:05.073Z,1005.26
2019-01-27T06:21:45.712Z,1005.29
2019-01-27T06:22:26.377Z,1005.29
2019-01-27T06:23:07.021Z,1005.27
2019-01-27T06:23:47.624Z,1005.29
2019-01-27T06:24:28.291Z,1005.3
2019-01-27T06:25:08.917Z,1005.28
2019-01-27T06:25:49.531Z,1005.3
2019-01-27T06:26:30.286Z,1005.28
2019-01-27T06:27:11.023Z,1005.3
2019-01-27T06:27:51.969Z,1005.29
2019-01-27T06:28:32.527Z,1005.26
2019-01-27T06:29:13.131Z,1005.26
2019-01-27T06:29:53.783Z,1005.23
2019-01-27T06:30:34.353Z,1005.24
2019-01-27T06:31:14.959Z,1005.26
2019-01-27T06:31:55.573Z,1005.25
2019-01-27T06:32:36.250Z,1005.25
2019-01-27T06:33:16.863Z,1005.24
2019-01-27T06:33:57.469Z,1005.24
2019-01-27T06:34:38.121Z,1005.26
2019-01-27T06:35:18.789Z,1005.29
2019-01-27T06:35:59.409Z,1005.31
2019-01-27T06:36:40.015Z,1005.38
2019-01-27T06:37:24.797Z,1005.44
2019-01-27T06:38:01.221Z,1005.43
2019-01-27T06:38:41.869Z,1005.47
2019-01-27T06:39:22.483Z,1005.46
2019-01-27T06:40:03.091Z,1005.43
2019-01-27T06:40:43.693Z,1005.43
2019-01-27T06:41:24.321Z,1005.41
2019-01-27T06:42:04.940Z,1005.44
2019-01-27T06:42:45.543Z,1005.48
2019-01-27T06:43:26.150Z,1005.46
2019-01-27T06:44:06.763Z,1005.52
2019-01-27T06:44:47.373Z,1005.52
2019-01-27T06:45:27.995Z,1005.49
2019-01-27T06:46:08.588Z,1005.49
2019-01-27T06:46:49.218Z,1005.43
2019-01-27T06:47:29.851Z,1005.42
2019-01-27T06:48:10.459Z,1005.4
2019-01-27T06:48:51.103Z,1005.38
2019-01-27T06:49:31.707Z,1005.33
2019-01-27T06:50:12.359Z,1005.3
2019-01-27T06:50:52.955Z,1005.26
2019-01-27T06:51:33.575Z,1005.26
2019-01-27T06:52:14.187Z,1005.17
2019-01-27T06:52:54.825Z,1005.23
2019-01-27T06:53:35.437Z,1005.18
2019-01-27T06:54:16.077Z,1005.19
2019-01-27T06:54:56.695Z,1005.16
2019-01-27T06:55:37.329Z,1005.14
2019-01-27T06:56:17.931Z,1005.14
2019-01-27T06:56:58.541Z,1005.13
2019-01-27T06:57:39.239Z,1005.13
2019-01-27T06:58:19.845Z,1005.06
2019-01-27T06:59:00.515Z,1005.13
2019-01-27T06:59:41.167Z,1005.14
2019-01-27T07:00:21.791Z,1005.16
2019-01-27T07:01:02.433Z,1005.21
2019-01-27T07:01:43.041Z,1005.22
2019-01-27T07:02:29.449Z,1005.19
2019-01-27T07:03:04.307Z,1005.24
2019-01-27T07:03:44.931Z,1005.24
2019-01-27T07:04:25.532Z,1005.29
2019-01-27T07:05:06.167Z,1005.28
2019-01-27T07:05:46.769Z,1005.31
2019-01-27T07:06:27.395Z,1005.32
2019-01-27T07:07:08.005Z,1005.35
2019-01-27T07:07:48.616Z,1005.33
2019-01-27T07:08:29.299Z,1005.34
2019-01-27T07:09:09.897Z,1005.31
2019-01-27T07:09:50.515Z,1005.32
2019-01-27T07:10:31.167Z,1005.31
2019-01-27T07:11:11.780Z,1005.33
2019-01-27T07:11:52.392Z,1005.34
2019-01-27T07:12:33.079Z,1005.33
2019-01-27T07:13:13.717Z,1005.32
2019-01-27T07:13:54.391Z,1005.3
2019-01-27T07:14:35.001Z,1005.29
2019-01-27T07:15:15.637Z,1005.31
2019-01-27T07:15:56.259Z,1005.28
2019-01-27T07:16:36.867Z,1005.3
2019-01-27T07:17:17.473Z,1005.25
2019-01-27T07:17:58.075Z,1005.27
2019-01-27T07:18:38.687Z,1005.27
2019-01-27T07:19:19.315Z,1005.29
2019-01-27T07:19:59.939Z,1005.3
2019-01-27T07:20:40.560Z,1005.31
2019-01-27T07:21:21.157Z,1005.33
2019-01-27T07:22:01.783Z,1005.35
2019-01-27T07:22:42.407Z,1005.35
2019-01-27T07:23:23.068Z,1005.35
2019-01-27T07:24:03.667Z,1005.35
2019-01-27T07:24:44.261Z,1005.3
2019-01-27T07:25:24.897Z,1005.34
2019-01-27T07:26:05.515Z,1005.32
2019-01-27T07:26:46.167Z,1005.36
2019-01-27T07:27:26.796Z,1005.36
2019-01-27T07:28:07.413Z,1005.36
2019-01-27T07:28:48.041Z,1005.37
2019-01-27T07:29:28.650Z,1005.36
2019-01-27T07:30:09.266Z,1005.37
2019-01-27T07:30:49.897Z,1005.33
2019-01-27T07:31:30.505Z,1005.35
2019-01-27T07:32:11.105Z,1005.4
2019-01-27T07:32:51.730Z,1005.38
2019-01-27T07:33:32.349Z,1005.43
2019-01-27T07:34:12.970Z,1005.45
2019-01-27T07:34:53.584Z,1005.47
2019-01-27T07:35:34.203Z,1005.54
2019-01-27T07:36:14.815Z,1005.57
2019-01-27T07:36:55.419Z,1005.6
2019-01-27T07:37:36.043Z,1005.63
2019-01-27T07:38:16.654Z,1005.64
2019-01-27T07:38:57.269Z,1005.67
2019-01-27T07:39:37.887Z,1005.64
2019-01-27T07:40:18.492Z,1005.66
2019-01-27T07:40:59.093Z,1005.62
2019-01-27T07:41:39.710Z,1005.62
2019-01-27T07:42:20.306Z,1005.62
2019-01-27T07:43:00.903Z,1005.61
2019-01-27T07:43:41.495Z,1005.63
2019-01-27T07:44:22.112Z,1005.65
2019-01-27T07:45:02.702Z,1005.68
2019-01-27T07:45:43.325Z,1005.7
2019-01-27T07:46:24.141Z,1005.73
2019-01-27T07:47:04.795Z,1005.74
2019-01-27T07:47:45.419Z,1005.74
2019-01-27T07:48:26.027Z,1005.72
2019-01-27T07:49:06.626Z,1005.71
2019-01-27T07:49:47.240Z,1005.71
2019-01-27T07:50:27.852Z,1005.69
2019-01-27T07:51:08.463Z,1005.73
2019-01-27T07:51:49.075Z,1005.72
2019-01-27T07:52:29.696Z,1005.66
2019-01-27T07:53:10.326Z,1005.65
2019-01-27T07:53:50.934Z,1005.64
2019-01-27T07:54:31.568Z,1005.63
2019-01-27T07:55:12.181Z,1005.63
2019-01-27T07:55:52.825Z,1005.59
2019-01-27T07:56:33.457Z,1005.6
2019-01-27T07:57:14.047Z,1005.59
2019-01-27T07:57:54.661Z,1005.58
2019-01-27T07:58:35.287Z,1005.57
2019-01-27T07:59:15.891Z,1005.59
2019-01-27T07:59:56.505Z,1005.59
2019-01-27T08:00:37.146Z,1005.6
2019-01-27T08:01:17.767Z,1005.6
2019-01-27T08:01:58.404Z,1005.61
2019-01-27T08:02:39.024Z,1005.64
2019-01-27T08:03:19.645Z,1005.67
2019-01-27T08:04:00.274Z,1005.69
2019-01-27T08:04:40.932Z,1005.65
2019-01-27T08:05:21.797Z,1005.65
2019-01-27T08:06:02.434Z,1005.65
2019-01-27T08:06:43.297Z,1005.62
2019-01-27T08:07:24.208Z,1005.56
2019-01-27T08:08:04.860Z,1005.61
2019-01-27T08:08:45.471Z,1005.57
2019-01-27T08:09:26.100Z,1005.6
2019-01-27T08:10:06.712Z,1005.61
2019-01-27T08:10:47.378Z,1005.68
2019-01-27T08:11:28.002Z,1005.68
2019-01-27T08:12:08.655Z,1005.65
2019-01-27T08:12:49.283Z,1005.64
2019-01-27T08:13:29.876Z,1005.64
2019-01-27T08:14:10.481Z,1005.64
2019-01-27T08:14:51.083Z,1005.62